sensor_id;sensor_type;location;lat;lon;timestamp;pressure;altitude;pressure_sealevel;temperature;humidity
5755;BME280;2902;42.130;24.732;2023-09-08T00:02:27;99924.75;;;24.03;64.13
5755;BME280;2902;42.130;24.732;2023-09-08T00:04:54;99927.72;;;24.07;63.77
5755;BME280;2902;42.130;24.732;2023-09-08T00:07:21;99922.31;;;24.07;63.47
5755;BME280;2902;42.130;24.732;2023-09-08T00:09:48;99916.03;;;24.06;64.18
5755;BME280;2902;42.130;24.732;2023-09-08T00:12:16;99918.50;;;24.08;64.15
5755;BME280;2902;42.130;24.732;2023-09-08T00:14:43;99913.88;;;24.08;64.80
5755;BME280;2902;42.130;24.732;2023-09-08T00:17:10;99931.78;;;24.09;64.32
5755;BME280;2902;42.130;24.732;2023-09-08T00:19:36;99917.69;;;24.07;65.03
5755;BME280;2902;42.130;24.732;2023-09-08T00:22:04;99924.75;;;24.03;65.92
5755;BME280;2902;42.130;24.732;2023-09-08T00:24:32;99920.38;;;24.02;65.75
5755;BME280;2902;42.130;24.732;2023-09-08T00:26:59;99913.34;;;24.01;66.59
5755;BME280;2902;42.130;24.732;2023-09-08T00:29:27;99909.53;;;23.97;65.93
5755;BME280;2902;42.130;24.732;2023-09-08T00:31:53;99912.53;;;24.01;65.55
5755;BME280;2902;42.130;24.732;2023-09-08T00:34:20;99912.78;;;23.94;67.00
5755;BME280;2902;42.130;24.732;2023-09-08T00:36:47;99915.50;;;23.94;66.96
5755;BME280;2902;42.130;24.732;2023-09-08T00:39:13;99904.13;;;23.92;68.45
5755;BME280;2902;42.130;24.732;2023-09-08T00:41:40;99910.66;;;23.91;68.94
5755;BME280;2902;42.130;24.732;2023-09-08T00:44:07;99906.00;;;23.87;69.50
5755;BME280;2902;42.130;24.732;2023-09-08T00:46:35;99910.91;;;23.85;69.57
5755;BME280;2902;42.130;24.732;2023-09-08T00:49:02;99917.13;;;23.80;70.06
5755;BME280;2902;42.130;24.732;2023-09-08T00:51:29;99917.94;;;23.76;69.68
5755;BME280;2902;42.130;24.732;2023-09-08T00:53:56;99920.38;;;23.67;69.90
5755;BME280;2902;42.130;24.732;2023-09-08T00:56:23;99901.41;;;23.62;70.82
5755;BME280;2902;42.130;24.732;2023-09-08T00:58:50;99906.78;;;23.57;71.83
5755;BME280;2902;42.130;24.732;2023-09-08T01:01:17;99895.13;;;23.47;72.84
5755;BME280;2902;42.130;24.732;2023-09-08T01:03:45;99887.00;;;23.42;73.49
5755;BME280;2902;42.130;24.732;2023-09-08T01:06:12;99880.78;;;23.41;74.29
5755;BME280;2902;42.130;24.732;2023-09-08T01:08:39;99893.78;;;23.39;74.63
5755;BME280;2902;42.130;24.732;2023-09-08T01:11:07;99890.53;;;23.37;74.86
5755;BME280;2902;42.130;24.732;2023-09-08T01:13:33;99888.09;;;23.36;75.24
5755;BME280;2902;42.130;24.732;2023-09-08T01:16:01;99886.16;;;23.31;75.55
5755;BME280;2902;42.130;24.732;2023-09-08T01:18:27;99877.50;;;23.29;76.32
5755;BME280;2902;42.130;24.732;2023-09-08T01:21:17;99873.13;;;23.28;76.83
5755;BME280;2902;42.130;24.732;2023-09-08T01:24:03;99869.34;;;23.24;77.51
5755;BME280;2902;42.130;24.732;2023-09-08T01:26:41;99868.22;;;23.05;78.17
5755;BME280;2902;42.130;24.732;2023-09-08T01:29:09;99870.09;;;22.95;78.64
5755;BME280;2902;42.130;24.732;2023-09-08T01:31:37;99871.97;;;22.94;79.26
5755;BME280;2902;42.130;24.732;2023-09-08T01:34:04;99866.28;;;22.96;79.68
5755;BME280;2902;42.130;24.732;2023-09-08T01:36:32;99876.28;;;22.95;79.65
5755;BME280;2902;42.130;24.732;2023-09-08T01:38:59;99870.34;;;22.98;79.37
5755;BME280;2902;42.130;24.732;2023-09-08T01:41:25;99867.38;;;22.95;79.06
5755;BME280;2902;42.130;24.732;2023-09-08T01:43:53;99869.53;;;22.93;79.43
5755;BME280;2902;42.130;24.732;2023-09-08T01:46:21;99871.13;;;22.79;80.04
5755;BME280;2902;42.130;24.732;2023-09-08T01:48:47;99875.13;;;22.71;80.23
5755;BME280;2902;42.130;24.732;2023-09-08T01:51:14;99874.28;;;22.61;80.37
5755;BME280;2902;42.130;24.732;2023-09-08T01:53:41;99868.56;;;22.47;80.82
5755;BME280;2902;42.130;24.732;2023-09-08T01:56:07;99870.91;;;22.39;81.49
5755;BME280;2902;42.130;24.732;2023-09-08T01:58:34;99873.28;;;22.30;82.92
5755;BME280;2902;42.130;24.732;2023-09-08T02:01:02;99875.44;;;22.23;83.94
5755;BME280;2902;42.130;24.732;2023-09-08T02:03:31;99875.94;;;22.15;85.89
5755;BME280;2902;42.130;24.732;2023-09-08T02:05:57;99876.38;;;22.02;86.83
5755;BME280;2902;42.130;24.732;2023-09-08T02:08:24;99872.28;;;22.00;87.50
5755;BME280;2902;42.130;24.732;2023-09-08T02:10:51;99874.97;;;21.95;87.89
5755;BME280;2902;42.130;24.732;2023-09-08T02:13:17;99873.56;;;21.87;89.18
5755;BME280;2902;42.130;24.732;2023-09-08T02:15:44;99869.19;;;21.81;89.78
5755;BME280;2902;42.130;24.732;2023-09-08T02:18:12;99878.38;;;21.80;89.84
5755;BME280;2902;42.130;24.732;2023-09-08T02:20:39;99875.94;;;21.79;90.02
5755;BME280;2902;42.130;24.732;2023-09-08T02:23:06;99868.63;;;21.74;90.40
5755;BME280;2902;42.130;24.732;2023-09-08T02:25:33;99871.56;;;21.73;90.51
5755;BME280;2902;42.130;24.732;2023-09-08T02:28:00;99870.13;;;21.65;90.91
5755;BME280;2902;42.130;24.732;2023-09-08T02:30:26;99862.78;;;21.61;91.45
5755;BME280;2902;42.130;24.732;2023-09-08T02:32:53;99862.75;;;21.56;92.24
5755;BME280;2902;42.130;24.732;2023-09-08T02:35:22;99856.53;;;21.55;92.54
5755;BME280;2902;42.130;24.732;2023-09-08T02:37:49;99863.88;;;21.60;93.08
5755;BME280;2902;42.130;24.732;2023-09-08T02:40:16;99862.03;;;21.65;92.49
5755;BME280;2902;42.130;24.732;2023-09-08T02:42:43;99859.41;;;21.75;92.18
5755;BME280;2902;42.130;24.732;2023-09-08T02:45:10;99861.06;;;21.81;91.68
5755;BME280;2902;42.130;24.732;2023-09-08T02:47:37;99854.06;;;21.85;91.70
5755;BME280;2902;42.130;24.732;2023-09-08T02:50:04;99851.34;;;21.85;91.16
5755;BME280;2902;42.130;24.732;2023-09-08T02:52:33;99856.19;;;21.78;91.92
5755;BME280;2902;42.130;24.732;2023-09-08T02:55:00;99851.88;;;21.77;91.78
5755;BME280;2902;42.130;24.732;2023-09-08T02:57:26;99852.44;;;21.84;91.61
5755;BME280;2902;42.130;24.732;2023-09-08T02:59:53;99855.19;;;21.89;91.32
5755;BME280;2902;42.130;24.732;2023-09-08T03:02:21;99857.94;;;21.94;90.98
5755;BME280;2902;42.130;24.732;2023-09-08T03:04:48;99858.72;;;21.95;90.49
5755;BME280;2902;42.130;24.732;2023-09-08T03:07:15;99856.81;;;21.90;90.99
5755;BME280;2902;42.130;24.732;2023-09-08T03:09:43;99854.88;;;21.81;91.21
5755;BME280;2902;42.130;24.732;2023-09-08T03:12:09;99861.00;;;21.71;91.07
5755;BME280;2902;42.130;24.732;2023-09-08T03:14:36;99858.22;;;21.61;91.41
5755;BME280;2902;42.130;24.732;2023-09-08T03:17:03;99869.28;;;21.60;92.76
5755;BME280;2902;42.130;24.732;2023-09-08T03:19:30;99867.97;;;21.67;93.05
5755;BME280;2902;42.130;24.732;2023-09-08T03:21:56;99868.63;;;21.74;92.14
5755;BME280;2902;42.130;24.732;2023-09-08T03:24:23;99868.13;;;21.82;92.12
5755;BME280;2902;42.130;24.732;2023-09-08T03:26:52;99858.97;;;21.88;91.50
5755;BME280;2902;42.130;24.732;2023-09-08T03:29:18;99859.53;;;21.90;90.98
5755;BME280;2902;42.130;24.732;2023-09-08T03:31:45;99862.81;;;21.97;91.71
5755;BME280;2902;42.130;24.732;2023-09-08T03:34:12;99866.69;;;22.11;90.64
5755;BME280;2902;42.130;24.732;2023-09-08T03:36:39;99873.25;;;22.20;90.41
5755;BME280;2902;42.130;24.732;2023-09-08T03:39:06;99872.19;;;22.26;89.48
5755;BME280;2902;42.130;24.732;2023-09-08T03:41:34;99866.56;;;22.33;89.34
5755;BME280;2902;42.130;24.732;2023-09-08T03:44:03;99864.91;;;22.32;89.15
5755;BME280;2902;42.130;24.732;2023-09-08T03:46:29;99873.34;;;22.35;89.80
5755;BME280;2902;42.130;24.732;2023-09-08T03:48:56;99874.69;;;22.38;89.26
5755;BME280;2902;42.130;24.732;2023-09-08T03:51:26;99863.03;;;22.37;89.17
5755;BME280;2902;42.130;24.732;2023-09-08T03:53:53;99861.69;;;22.35;89.77
5755;BME280;2902;42.130;24.732;2023-09-08T03:56:19;99868.97;;;22.34;89.26
5755;BME280;2902;42.130;24.732;2023-09-08T03:58:47;99870.63;;;22.35;89.48
5755;BME280;2902;42.130;24.732;2023-09-08T04:01:16;99877.09;;;22.34;89.50
5755;BME280;2902;42.130;24.732;2023-09-08T04:03:42;99875.44;;;22.28;89.40
5755;BME280;2902;42.130;24.732;2023-09-08T04:06:09;99869.44;;;22.21;90.17
5755;BME280;2902;42.130;24.732;2023-09-08T04:08:36;99872.66;;;22.13;89.44
5755;BME280;2902;42.130;24.732;2023-09-08T04:11:03;99869.31;;;22.01;89.65
5755;BME280;2902;42.130;24.732;2023-09-08T04:13:30;99875.06;;;22.05;90.75
5755;BME280;2902;42.130;24.732;2023-09-08T04:15:56;99876.69;;;22.11;89.38
5755;BME280;2902;42.130;24.732;2023-09-08T04:18:24;99880.75;;;22.08;89.52
5755;BME280;2902;42.130;24.732;2023-09-08T04:20:51;99889.34;;;22.00;89.10
5755;BME280;2902;42.130;24.732;2023-09-08T04:23:17;99883.94;;;22.00;90.20
5755;BME280;2902;42.130;24.732;2023-09-08T04:25:45;99885.66;;;22.16;90.63
5755;BME280;2902;42.130;24.732;2023-09-08T04:28:12;99894.94;;;22.30;88.54
5755;BME280;2902;42.130;24.732;2023-09-08T04:30:39;99896.72;;;22.51;88.58
5755;BME280;2902;42.130;24.732;2023-09-08T04:33:05;99894.63;;;22.63;87.67
5755;BME280;2902;42.130;24.732;2023-09-08T04:35:33;99897.28;;;22.58;86.67
5755;BME280;2902;42.130;24.732;2023-09-08T04:38:00;99899.47;;;22.56;88.22
5755;BME280;2902;42.130;24.732;2023-09-08T04:40:27;99913.88;;;22.72;86.14
5755;BME280;2902;42.130;24.732;2023-09-08T04:42:54;99912.94;;;23.08;83.95
5755;BME280;2902;42.130;24.732;2023-09-08T04:45:20;99911.66;;;23.30;83.17
5755;BME280;2902;42.130;24.732;2023-09-08T04:47:47;99929.06;;;23.54;80.85
5755;BME280;2902;42.130;24.732;2023-09-08T04:50:15;99920.09;;;23.59;80.67
5755;BME280;2902;42.130;24.732;2023-09-08T04:52:43;99914.94;;;23.57;81.85
5755;BME280;2902;42.130;24.732;2023-09-08T04:55:09;99931.22;;;23.52;81.00
5755;BME280;2902;42.130;24.732;2023-09-08T04:57:36;99910.56;;;23.36;80.75
5755;BME280;2902;42.130;24.732;2023-09-08T05:00:04;99916.25;;;23.20;80.68
5755;BME280;2902;42.130;24.732;2023-09-08T05:02:31;99923.78;;;23.08;80.57
5755;BME280;2902;42.130;24.732;2023-09-08T05:04:58;99911.00;;;22.93;79.10
5755;BME280;2902;42.130;24.732;2023-09-08T05:07:26;99926.66;;;22.86;77.12
5755;BME280;2902;42.130;24.732;2023-09-08T05:09:54;99933.72;;;22.87;76.48
5755;BME280;2902;42.130;24.732;2023-09-08T05:12:20;99925.34;;;22.94;76.83
5755;BME280;2902;42.130;24.732;2023-09-08T05:14:47;99932.69;;;22.98;76.90
5755;BME280;2902;42.130;24.732;2023-09-08T05:17:14;99934.03;;;23.01;76.20
5755;BME280;2902;42.130;24.732;2023-09-08T05:19:41;99941.38;;;23.05;76.53
5755;BME280;2902;42.130;24.732;2023-09-08T05:22:07;99938.19;;;23.23;77.52
5755;BME280;2902;42.130;24.732;2023-09-08T05:24:34;99935.56;;;23.58;77.67
5755;BME280;2902;42.130;24.732;2023-09-08T05:27:02;99934.25;;;24.11;76.96
5755;BME280;2902;42.130;24.732;2023-09-08T05:29:29;99939.00;;;24.74;75.42
5755;BME280;2902;42.130;24.732;2023-09-08T05:31:56;99938.19;;;25.37;73.09
5755;BME280;2902;42.130;24.732;2023-09-08T05:34:22;99945.44;;;25.90;69.86
5755;BME280;2902;42.130;24.732;2023-09-08T05:36:49;99949.63;;;26.40;66.92
5755;BME280;2902;42.130;24.732;2023-09-08T05:39:16;99950.53;;;26.59;66.02
5755;BME280;2902;42.130;24.732;2023-09-08T05:41:44;99959.19;;;26.89;64.17
5755;BME280;2902;42.130;24.732;2023-09-08T05:44:12;99966.88;;;27.06;63.93
5755;BME280;2902;42.130;24.732;2023-09-08T05:46:39;99963.41;;;27.24;62.94
5755;BME280;2902;42.130;24.732;2023-09-08T05:49:05;99965.66;;;27.17;62.98
5755;BME280;2902;42.130;24.732;2023-09-08T05:51:32;99964.75;;;27.45;63.03
5755;BME280;2902;42.130;24.732;2023-09-08T05:53:59;99973.66;;;28.06;60.99
5755;BME280;2902;42.130;24.732;2023-09-08T05:56:29;99986.16;;;28.57;58.39
5755;BME280;2902;42.130;24.732;2023-09-08T05:58:57;99987.09;;;28.93;58.19
5755;BME280;2902;42.130;24.732;2023-09-08T06:01:25;99977.97;;;28.98;56.40
5755;BME280;2902;42.130;24.732;2023-09-08T06:03:51;99974.56;;;29.06;56.71
5755;BME280;2902;42.130;24.732;2023-09-08T06:06:19;99987.25;;;29.51;54.64
5755;BME280;2902;42.130;24.732;2023-09-08T06:08:46;99961.91;;;29.46;52.83
5755;BME280;2902;42.130;24.732;2023-09-08T06:11:13;99971.78;;;29.33;53.97
5755;BME280;2902;42.130;24.732;2023-09-08T06:13:40;99973.63;;;28.97;54.95
5755;BME280;2902;42.130;24.732;2023-09-08T06:16:07;99973.94;;;28.68;55.81
5755;BME280;2902;42.130;24.732;2023-09-08T06:18:35;99971.28;;;28.50;56.88
5755;BME280;2902;42.130;24.732;2023-09-08T06:21:05;99967.31;;;28.56;57.57
5755;BME280;2902;42.130;24.732;2023-09-08T06:23:32;99971.50;;;29.07;56.79
5755;BME280;2902;42.130;24.732;2023-09-08T06:25:59;99981.16;;;29.68;53.22
5755;BME280;2902;42.130;24.732;2023-09-08T06:28:26;99984.63;;;29.60;52.38
5755;BME280;2902;42.130;24.732;2023-09-08T06:30:53;99996.59;;;29.50;53.20
5755;BME280;2902;42.130;24.732;2023-09-08T06:33:20;99995.66;;;29.68;52.96
5755;BME280;2902;42.130;24.732;2023-09-08T06:35:49;99993.88;;;29.86;53.14
5755;BME280;2902;42.130;24.732;2023-09-08T06:38:15;99999.00;;;30.23;52.03
5755;BME280;2902;42.130;24.732;2023-09-08T06:40:42;99992.84;;;30.39;51.10
5755;BME280;2902;42.130;24.732;2023-09-08T06:43:09;99998.19;;;30.44;50.54
5755;BME280;2902;42.130;24.732;2023-09-08T06:45:37;100001.00;;;30.61;48.99
5755;BME280;2902;42.130;24.732;2023-09-08T06:48:05;100001.66;;;30.89;49.10
5755;BME280;2902;42.130;24.732;2023-09-08T06:50:31;100004.13;;;31.07;49.31
5755;BME280;2902;42.130;24.732;2023-09-08T06:52:59;99997.31;;;31.27;48.33
5755;BME280;2902;42.130;24.732;2023-09-08T06:55:26;99999.28;;;31.60;48.74
5755;BME280;2902;42.130;24.732;2023-09-08T06:57:53;100008.19;;;31.74;45.96
5755;BME280;2902;42.130;24.732;2023-09-08T07:00:19;100000.41;;;31.42;47.03
5755;BME280;2902;42.130;24.732;2023-09-08T07:02:46;99999.84;;;31.23;48.81
5755;BME280;2902;42.130;24.732;2023-09-08T07:05:15;100002.13;;;31.30;47.88
5755;BME280;2902;42.130;24.732;2023-09-08T07:07:41;100008.50;;;31.64;46.53
5755;BME280;2902;42.130;24.732;2023-09-08T07:10:11;100006.59;;;32.07;45.54
5755;BME280;2902;42.130;24.732;2023-09-08T07:12:37;100013.53;;;32.22;43.53
5755;BME280;2902;42.130;24.732;2023-09-08T07:15:05;100014.63;;;32.55;44.16
5755;BME280;2902;42.130;24.732;2023-09-08T07:17:32;100004.22;;;32.69;43.28
5755;BME280;2902;42.130;24.732;2023-09-08T07:19:58;100003.94;;;32.53;43.00
5755;BME280;2902;42.130;24.732;2023-09-08T07:22:25;100000.75;;;32.34;42.73
5755;BME280;2902;42.130;24.732;2023-09-08T07:24:52;100004.81;;;31.77;44.94
5755;BME280;2902;42.130;24.732;2023-09-08T07:27:20;100003.03;;;31.81;44.39
5755;BME280;2902;42.130;24.732;2023-09-08T07:29:46;100004.00;;;31.85;42.78
5755;BME280;2902;42.130;24.732;2023-09-08T07:32:15;100003.19;;;31.68;43.43
5755;BME280;2902;42.130;24.732;2023-09-08T07:34:42;99996.19;;;31.45;44.04
5755;BME280;2902;42.130;24.732;2023-09-08T07:37:08;100000.88;;;31.61;43.52
5755;BME280;2902;42.130;24.732;2023-09-08T07:39:35;99991.00;;;31.43;42.49
5755;BME280;2902;42.130;24.732;2023-09-08T07:42:02;99987.78;;;31.67;41.29
5755;BME280;2902;42.130;24.732;2023-09-08T07:44:30;99989.78;;;31.83;40.16
5755;BME280;2902;42.130;24.732;2023-09-08T07:46:57;99992.19;;;32.02;39.32
5755;BME280;2902;42.130;24.732;2023-09-08T07:49:23;99986.03;;;32.22;38.89
5755;BME280;2902;42.130;24.732;2023-09-08T07:51:50;99983.03;;;32.61;37.74
5755;BME280;2902;42.130;24.732;2023-09-08T07:54:17;99980.19;;;32.78;36.36
5755;BME280;2902;42.130;24.732;2023-09-08T07:56:43;99985.06;;;32.35;36.34
5755;BME280;2902;42.130;24.732;2023-09-08T07:59:10;99982.97;;;32.23;35.91
5755;BME280;2902;42.130;24.732;2023-09-08T08:01:38;99979.56;;;32.09;36.61
5755;BME280;2902;42.130;24.732;2023-09-08T08:04:05;99977.81;;;32.05;35.78
5755;BME280;2902;42.130;24.732;2023-09-08T08:06:31;99976.00;;;32.26;35.93
5755;BME280;2902;42.130;24.732;2023-09-08T08:08:58;99974.84;;;32.44;35.65
5755;BME280;2902;42.130;24.732;2023-09-08T08:11:25;99975.47;;;32.49;35.21
5755;BME280;2902;42.130;24.732;2023-09-08T08:13:52;99970.53;;;32.80;34.97
5755;BME280;2902;42.130;24.732;2023-09-08T08:16:18;99971.34;;;33.10;33.74
5755;BME280;2902;42.130;24.732;2023-09-08T08:18:48;99973.97;;;33.27;34.36
5755;BME280;2902;42.130;24.732;2023-09-08T08:21:15;99981.56;;;33.39;33.67
5755;BME280;2902;42.130;24.732;2023-09-08T08:23:42;99969.63;;;32.97;33.05
5755;BME280;2902;42.130;24.732;2023-09-08T08:26:09;99965.84;;;32.72;34.09
5755;BME280;2902;42.130;24.732;2023-09-08T08:28:35;99965.59;;;32.94;33.37
5755;BME280;2902;42.130;24.732;2023-09-08T08:31:02;99962.84;;;33.23;32.39
5755;BME280;2902;42.130;24.732;2023-09-08T08:33:29;99963.97;;;33.52;32.04
5755;BME280;2902;42.130;24.732;2023-09-08T08:35:57;99965.53;;;33.82;31.63
5755;BME280;2902;42.130;24.732;2023-09-08T08:38:23;99957.94;;;34.11;31.17
5755;BME280;2902;42.130;24.732;2023-09-08T08:40:50;99950.69;;;34.39;30.71
5755;BME280;2902;42.130;24.732;2023-09-08T08:43:17;99950.81;;;34.43;30.98
5755;BME280;2902;42.130;24.732;2023-09-08T08:45:46;99953.63;;;34.22;30.18
5755;BME280;2902;42.130;24.732;2023-09-08T08:48:15;99951.91;;;33.97;29.87
5755;BME280;2902;42.130;24.732;2023-09-08T08:50:44;99950.22;;;34.05;29.71
5755;BME280;2902;42.130;24.732;2023-09-08T08:53:12;99956.22;;;34.39;30.17
5755;BME280;2902;42.130;24.732;2023-09-08T08:55:39;99954.19;;;34.28;28.99
5755;BME280;2902;42.130;24.732;2023-09-08T08:58:07;99945.91;;;34.16;28.31
5755;BME280;2902;42.130;24.732;2023-09-08T09:00:34;99946.13;;;34.23;29.11
5755;BME280;2902;42.130;24.732;2023-09-08T09:03:05;99947.28;;;33.69;29.74
5755;BME280;2902;42.130;24.732;2023-09-08T09:05:32;99959.47;;;33.68;29.64
5755;BME280;2902;42.130;24.732;2023-09-08T09:08:01;99940.16;;;33.88;29.37
5755;BME280;2902;42.130;24.732;2023-09-08T09:10:31;99948.34;;;33.76;29.07
5755;BME280;2902;42.130;24.732;2023-09-08T09:12:58;99943.13;;;33.63;29.41
5755;BME280;2902;42.130;24.732;2023-09-08T09:15:29;99936.94;;;33.66;29.32
5755;BME280;2902;42.130;24.732;2023-09-08T09:18:02;99928.78;;;33.90;28.65
5755;BME280;2902;42.130;24.732;2023-09-08T09:20:29;99946.31;;;34.06;29.42
5755;BME280;2902;42.130;24.732;2023-09-08T09:22:56;99942.22;;;34.24;28.23
5755;BME280;2902;42.130;24.732;2023-09-08T09:25:23;99930.66;;;34.30;28.38
5755;BME280;2902;42.130;24.732;2023-09-08T09:27:53;99928.47;;;34.36;28.39
5755;BME280;2902;42.130;24.732;2023-09-08T09:30:21;99929.34;;;34.28;29.15
5755;BME280;2902;42.130;24.732;2023-09-08T09:32:47;99912.16;;;34.31;29.15
5755;BME280;2902;42.130;24.732;2023-09-08T09:35:15;99932.53;;;34.50;29.19
5755;BME280;2902;42.130;24.732;2023-09-08T09:37:42;99922.78;;;34.41;28.06
5755;BME280;2902;42.130;24.732;2023-09-08T09:40:09;99926.69;;;34.64;27.76
5755;BME280;2902;42.130;24.732;2023-09-08T09:42:37;99921.72;;;34.57;27.47
5755;BME280;2902;42.130;24.732;2023-09-08T09:45:07;99924.97;;;34.71;27.33
5755;BME280;2902;42.130;24.732;2023-09-08T09:47:34;99913.34;;;34.66;27.07
5755;BME280;2902;42.130;24.732;2023-09-08T09:50:01;99912.53;;;34.65;27.07
5755;BME280;2902;42.130;24.732;2023-09-08T09:52:28;99913.13;;;34.71;26.85
5755;BME280;2902;42.130;24.732;2023-09-08T09:54:57;99896.78;;;34.42;27.55
5755;BME280;2902;42.130;24.732;2023-09-08T09:57:25;99901.16;;;34.55;27.77
5755;BME280;2902;42.130;24.732;2023-09-08T09:59:53;99894.94;;;34.70;27.80
5755;BME280;2902;42.130;24.732;2023-09-08T10:02:22;99907.16;;;34.81;28.08
5755;BME280;2902;42.130;24.732;2023-09-08T10:04:50;99893.56;;;34.52;27.29
5755;BME280;2902;42.130;24.732;2023-09-08T10:07:18;99891.03;;;34.47;27.72
5755;BME280;2902;42.130;24.732;2023-09-08T10:09:44;99892.88;;;34.55;27.61
5755;BME280;2902;42.130;24.732;2023-09-08T10:12:13;99885.63;;;34.74;27.37
5755;BME280;2902;42.130;24.732;2023-09-08T10:14:42;99868.94;;;34.47;27.02
5755;BME280;2902;42.130;24.732;2023-09-08T10:17:11;99872.06;;;34.01;27.75
5755;BME280;2902;42.130;24.732;2023-09-08T10:19:40;99871.03;;;33.93;28.38
5755;BME280;2902;42.130;24.732;2023-09-08T10:22:11;99866.31;;;33.61;28.44
5755;BME280;2902;42.130;24.732;2023-09-08T10:24:40;99862.34;;;33.50;28.63
5755;BME280;2902;42.130;24.732;2023-09-08T10:27:08;99863.81;;;33.48;28.38
5755;BME280;2902;42.130;24.732;2023-09-08T10:29:36;99861.34;;;33.55;28.58
5755;BME280;2902;42.130;24.732;2023-09-08T10:32:04;99856.28;;;33.57;28.57
5755;BME280;2902;42.130;24.732;2023-09-08T10:34:32;99863.00;;;33.68;28.63
5755;BME280;2902;42.130;24.732;2023-09-08T10:37:01;99855.44;;;33.77;28.23
5755;BME280;2902;42.130;24.732;2023-09-08T10:39:32;99860.91;;;33.97;27.83
5755;BME280;2902;42.130;24.732;2023-09-08T10:42:21;99848.97;;;34.05;27.81
5755;BME280;2902;42.130;24.732;2023-09-08T10:45:00;99847.03;;;34.06;27.48
5755;BME280;2902;42.130;24.732;2023-09-08T10:47:39;99840.34;;;33.95;27.85
5755;BME280;2902;42.130;24.732;2023-09-08T10:50:15;99841.50;;;33.61;28.91
5755;BME280;2902;42.130;24.732;2023-09-08T10:52:43;99836.94;;;33.45;29.40
5755;BME280;2902;42.130;24.732;2023-09-08T10:55:11;99836.78;;;33.20;29.42
5755;BME280;2902;42.130;24.732;2023-09-08T10:57:44;99835.03;;;32.75;30.90
5755;BME280;2902;42.130;24.732;2023-09-08T11:00:17;99838.66;;;32.87;30.04
5755;BME280;2902;42.130;24.732;2023-09-08T11:02:48;99833.03;;;33.04;29.09
5755;BME280;2902;42.130;24.732;2023-09-08T11:05:16;99830.22;;;32.92;28.91
5755;BME280;2902;42.130;24.732;2023-09-08T11:07:45;99819.16;;;32.72;29.68
5755;BME280;2902;42.130;24.732;2023-09-08T11:10:13;99809.78;;;32.44;30.06
5755;BME280;2902;42.130;24.732;2023-09-08T11:12:39;99815.84;;;32.20;31.58
5755;BME280;2902;42.130;24.732;2023-09-08T11:15:08;99810.13;;;32.05;30.89
5755;BME280;2902;42.130;24.732;2023-09-08T11:17:36;99806.09;;;32.02;31.00
5755;BME280;2902;42.130;24.732;2023-09-08T11:20:05;99803.50;;;31.97;30.24
5755;BME280;2902;42.130;24.732;2023-09-08T11:22:35;99804.22;;;31.60;31.35
5755;BME280;2902;42.130;24.732;2023-09-08T11:25:03;99802.31;;;31.44;30.89
5755;BME280;2902;42.130;24.732;2023-09-08T11:27:33;99798.44;;;31.36;31.53
5755;BME280;2902;42.130;24.732;2023-09-08T11:30:00;99794.72;;;31.32;33.00
5755;BME280;2902;42.130;24.732;2023-09-08T11:32:31;99787.16;;;31.12;31.79
5755;BME280;2902;42.130;24.732;2023-09-08T11:35:01;99791.31;;;31.18;31.82
5755;BME280;2902;42.130;24.732;2023-09-08T11:37:29;99788.44;;;31.15;32.15
5755;BME280;2902;42.130;24.732;2023-09-08T11:39:56;99778.41;;;31.10;31.53
5755;BME280;2902;42.130;24.732;2023-09-08T11:42:25;99779.72;;;31.04;31.75
5755;BME280;2902;42.130;24.732;2023-09-08T11:44:53;99776.81;;;31.26;32.37
5755;BME280;2902;42.130;24.732;2023-09-08T11:47:20;99773.06;;;31.39;30.68
5755;BME280;2902;42.130;24.732;2023-09-08T11:49:46;99768.38;;;31.48;30.99
5755;BME280;2902;42.130;24.732;2023-09-08T11:52:13;99767.06;;;31.54;31.08
5755;BME280;2902;42.130;24.732;2023-09-08T11:54:40;99757.06;;;31.50;30.71
5755;BME280;2902;42.130;24.732;2023-09-08T11:57:08;99756.09;;;31.54;30.54
5755;BME280;2902;42.130;24.732;2023-09-08T11:59:39;99755.72;;;31.64;31.00
5755;BME280;2902;42.130;24.732;2023-09-08T12:02:06;99757.06;;;31.58;31.09
5755;BME280;2902;42.130;24.732;2023-09-08T12:04:35;99751.84;;;31.65;31.43
5755;BME280;2902;42.130;24.732;2023-09-08T12:07:02;99748.63;;;31.63;30.37
5755;BME280;2902;42.130;24.732;2023-09-08T12:09:28;99752.00;;;31.69;31.57
5755;BME280;2902;42.130;24.732;2023-09-08T12:11:54;99746.00;;;31.75;30.83
5755;BME280;2902;42.130;24.732;2023-09-08T12:14:21;99741.34;;;31.67;29.94
5755;BME280;2902;42.130;24.732;2023-09-08T12:16:49;99737.78;;;31.67;29.53
5755;BME280;2902;42.130;24.732;2023-09-08T12:19:31;99738.44;;;31.64;29.38
5755;BME280;2902;42.130;24.732;2023-09-08T12:22:00;99725.66;;;31.76;29.42
5755;BME280;2902;42.130;24.732;2023-09-08T12:24:45;99735.63;;;31.89;29.52
5755;BME280;2902;42.130;24.732;2023-09-08T12:27:12;99735.34;;;31.82;28.89
5755;BME280;2902;42.130;24.732;2023-09-08T12:29:40;99729.16;;;31.85;28.91
5755;BME280;2902;42.130;24.732;2023-09-08T12:32:08;99719.81;;;31.86;30.42
5755;BME280;2902;42.130;24.732;2023-09-08T12:34:35;99720.47;;;31.83;29.21
5755;BME280;2902;42.130;24.732;2023-09-08T12:37:01;99712.97;;;31.92;28.93
5755;BME280;2902;42.130;24.732;2023-09-08T12:39:28;99715.53;;;31.97;28.64
5755;BME280;2902;42.130;24.732;2023-09-08T12:41:55;99716.44;;;32.10;28.68
5755;BME280;2902;42.130;24.732;2023-09-08T12:44:22;99713.47;;;31.94;28.48
5755;BME280;2902;42.130;24.732;2023-09-08T12:46:48;99708.94;;;31.90;29.31
5755;BME280;2902;42.130;24.732;2023-09-08T12:49:16;99702.94;;;31.96;29.34
5755;BME280;2902;42.130;24.732;2023-09-08T12:51:43;99709.06;;;32.02;28.66
5755;BME280;2902;42.130;24.732;2023-09-08T12:54:10;99702.63;;;31.89;29.55
5755;BME280;2902;42.130;24.732;2023-09-08T12:56:37;99707.72;;;31.70;29.43
5755;BME280;2902;42.130;24.732;2023-09-08T12:59:03;99708.50;;;31.71;30.06
5755;BME280;2902;42.130;24.732;2023-09-08T13:01:30;99701.91;;;31.72;30.69
5755;BME280;2902;42.130;24.732;2023-09-08T13:03:57;99706.66;;;31.54;30.47
5755;BME280;2902;42.130;24.732;2023-09-08T13:06:25;99712.00;;;31.42;30.90
5755;BME280;2902;42.130;24.732;2023-09-08T13:08:52;99713.66;;;31.35;30.88
5755;BME280;2902;42.130;24.732;2023-09-08T13:11:19;99712.34;;;31.32;30.55
5755;BME280;2902;42.130;24.732;2023-09-08T13:13:45;99719.94;;;31.18;29.93